sensor_id;sensor_type;location;lat;lon;timestamp;P1;durP1;ratioP1;P2;durP2;ratioP2
34433;SDS011;34290;48.562;13.384;2023-02-08T00:00:52;23.50;;;7.50;;
34433;SDS011;34290;48.562;13.384;2023-02-08T00:03:19;23.67;;;7.93;;
34433;SDS011;34290;48.562;13.384;2023-02-08T00:05:47;18.57;;;7.33;;
34433;SDS011;34290;48.562;13.384;2023-02-08T00:08:14;23.00;;;8.03;;
34433;SDS011;34290;48.562;13.384;2023-02-08T00:10:41;21.10;;;7.90;;
34433;SDS011;34290;48.562;13.384;2023-02-08T00:13:08;19.17;;;7.53;;
34433;SDS011;34290;48.562;13.384;2023-02-08T00:15:40;17.80;;;7.37;;
34433;SDS011;34290;48.562;13.384;2023-02-08T00:18:08;19.67;;;6.80;;
34433;SDS011;34290;48.562;13.384;2023-02-08T00:20:36;23.50;;;9.73;;
34433;SDS011;34290;48.562;13.384;2023-02-08T00:23:04;22.10;;;7.93;;
34433;SDS011;34290;48.562;13.384;2023-02-08T00:25:33;18.00;;;7.13;;
34433;SDS011;34290;48.562;13.384;2023-02-08T00:28:00;22.63;;;7.93;;
34433;SDS011;34290;48.562;13.384;2023-02-08T00:30:27;20.30;;;8.33;;
34433;SDS011;34290;48.562;13.384;2023-02-08T00:32:56;23.83;;;8.37;;
34433;SDS011;34290;48.562;13.384;2023-02-08T00:35:23;18.90;;;7.67;;
34433;SDS011;34290;48.562;13.384;2023-02-08T00:37:50;17.23;;;8.13;;
34433;SDS011;34290;48.562;13.384;2023-02-08T00:40:17;19.67;;;7.47;;
34433;SDS011;34290;48.562;13.384;2023-02-08T00:42:45;21.83;;;7.93;;
34433;SDS011;34290;48.562;13.384;2023-02-08T00:45:12;24.60;;;8.50;;
34433;SDS011;34290;48.562;13.384;2023-02-08T00:47:39;19.23;;;7.87;;
34433;SDS011;34290;48.562;13.384;2023-02-08T00:50:08;22.57;;;7.30;;
34433;SDS011;34290;48.562;13.384;2023-02-08T00:52:36;24.33;;;9.33;;
34433;SDS011;34290;48.562;13.384;2023-02-08T00:55:03;24.33;;;8.50;;
34433;SDS011;34290;48.562;13.384;2023-02-08T00:57:31;29.10;;;8.50;;
34433;SDS011;34290;48.562;13.384;2023-02-08T00:59:58;21.90;;;8.43;;
34433;SDS011;34290;48.562;13.384;2023-02-08T01:02:25;25.23;;;8.83;;
34433;SDS011;34290;48.562;13.384;2023-02-08T01:04:53;26.10;;;8.83;;
34433;SDS011;34290;48.562;13.384;2023-02-08T01:07:21;19.17;;;7.40;;
34433;SDS011;34290;48.562;13.384;2023-02-08T01:09:48;18.33;;;7.40;;
34433;SDS011;34290;48.562;13.384;2023-02-08T01:12:15;19.43;;;7.13;;
34433;SDS011;34290;48.562;13.384;2023-02-08T01:14:42;21.87;;;8.47;;
34433;SDS011;34290;48.562;13.384;2023-02-08T01:17:09;21.17;;;8.40;;
34433;SDS011;34290;48.562;13.384;2023-02-08T01:19:36;22.53;;;8.40;;
34433;SDS011;34290;48.562;13.384;2023-02-08T01:22:03;22.70;;;9.27;;
34433;SDS011;34290;48.562;13.384;2023-02-08T01:24:31;22.33;;;8.53;;
34433;SDS011;34290;48.562;13.384;2023-02-08T01:26:59;21.87;;;8.40;;
34433;SDS011;34290;48.562;13.384;2023-02-08T01:29:26;29.13;;;9.07;;
34433;SDS011;34290;48.562;13.384;2023-02-08T01:31:53;21.37;;;9.43;;
34433;SDS011;34290;48.562;13.384;2023-02-08T01:34:20;22.40;;;8.43;;
34433;SDS011;34290;48.562;13.384;2023-02-08T01:36:47;22.33;;;8.90;;
34433;SDS011;34290;48.562;13.384;2023-02-08T01:39:14;25.20;;;8.90;;
34433;SDS011;34290;48.562;13.384;2023-02-08T01:41:43;23.20;;;8.50;;
34433;SDS011;34290;48.562;13.384;2023-02-08T01:47:14;21.57;;;8.53;;
34433;SDS011;34290;48.562;13.384;2023-02-08T01:49:42;22.17;;;8.63;;
34433;SDS011;34290;48.562;13.384;2023-02-08T01:52:09;23.40;;;8.97;;
34433;SDS011;34290;48.562;13.384;2023-02-08T01:54:41;23.43;;;8.70;;
34433;SDS011;34290;48.562;13.384;2023-02-08T01:57:16;19.40;;;7.83;;
34433;SDS011;34290;48.562;13.384;2023-02-08T01:59:45;22.40;;;8.97;;
34433;SDS011;34290;48.562;13.384;2023-02-08T02:02:16;16.57;;;7.93;;
34433;SDS011;34290;48.562;13.384;2023-02-08T02:04:46;19.00;;;8.63;;
34433;SDS011;34290;48.562;13.384;2023-02-08T02:07:14;18.03;;;7.93;;
34433;SDS011;34290;48.562;13.384;2023-02-08T02:09:43;23.03;;;8.63;;
34433;SDS011;34290;48.562;13.384;2023-02-08T02:12:16;18.93;;;7.60;;
34433;SDS011;34290;48.562;13.384;2023-02-08T02:14:44;21.13;;;8.07;;
34433;SDS011;34290;48.562;13.384;2023-02-08T02:17:11;29.17;;;9.30;;
34433;SDS011;34290;48.562;13.384;2023-02-08T02:19:43;24.00;;;9.00;;
34433;SDS011;34290;48.562;13.384;2023-02-08T02:22:26;22.27;;;8.47;;
34433;SDS011;34290;48.562;13.384;2023-02-08T02:25:23;23.00;;;8.43;;
34433;SDS011;34290;48.562;13.384;2023-02-08T02:34:30;25.77;;;9.63;;
34433;SDS011;34290;48.562;13.384;2023-02-08T02:37:05;22.27;;;9.03;;
34433;SDS011;34290;48.562;13.384;2023-02-08T02:39:39;23.60;;;8.10;;
34433;SDS011;34290;48.562;13.384;2023-02-08T02:42:16;22.13;;;8.67;;
34433;SDS011;34290;48.562;13.384;2023-02-08T02:45:07;24.47;;;8.43;;
34433;SDS011;34290;48.562;13.384;2023-02-08T02:47:40;24.03;;;7.87;;
34433;SDS011;34290;48.562;13.384;2023-02-08T02:50:20;28.27;;;8.47;;
34433;SDS011;34290;48.562;13.384;2023-02-08T02:52:56;26.17;;;9.10;;
34433;SDS011;34290;48.562;13.384;2023-02-08T02:55:26;22.83;;;8.90;;
34433;SDS011;34290;48.562;13.384;2023-02-08T02:57:58;19.57;;;8.37;;
34433;SDS011;34290;48.562;13.384;2023-02-08T03:00:28;31.93;;;9.37;;
34433;SDS011;34290;48.562;13.384;2023-02-08T03:02:57;25.77;;;9.40;;
34433;SDS011;34290;48.562;13.384;2023-02-08T03:05:26;23.87;;;9.50;;
34433;SDS011;34290;48.562;13.384;2023-02-08T03:07:58;20.53;;;8.90;;
34433;SDS011;34290;48.562;13.384;2023-02-08T03:10:41;24.67;;;9.37;;
34433;SDS011;34290;48.562;13.384;2023-02-08T03:13:31;25.87;;;9.40;;
34433;SDS011;34290;48.562;13.384;2023-02-08T03:16:10;23.40;;;9.20;;
34433;SDS011;34290;48.562;13.384;2023-02-08T03:18:45;29.70;;;9.97;;
34433;SDS011;34290;48.562;13.384;2023-02-08T03:21:23;22.67;;;9.50;;
34433;SDS011;34290;48.562;13.384;2023-02-08T03:24:01;29.23;;;9.50;;
34433;SDS011;34290;48.562;13.384;2023-02-08T03:26:37;26.97;;;9.30;;
34433;SDS011;34290;48.562;13.384;2023-02-08T03:29:15;22.13;;;8.60;;
34433;SDS011;34290;48.562;13.384;2023-02-08T03:31:51;20.23;;;8.67;;
34433;SDS011;34290;48.562;13.384;2023-02-08T03:34:22;28.37;;;10.23;;
34433;SDS011;34290;48.562;13.384;2023-02-08T03:37:00;23.37;;;8.87;;
34433;SDS011;34290;48.562;13.384;2023-02-08T03:39:31;22.30;;;8.73;;
34433;SDS011;34290;48.562;13.384;2023-02-08T03:42:02;19.87;;;8.27;;
34433;SDS011;34290;48.562;13.384;2023-02-08T03:44:34;21.10;;;9.43;;
34433;SDS011;34290;48.562;13.384;2023-02-08T03:47:04;24.13;;;8.70;;
34433;SDS011;34290;48.562;13.384;2023-02-08T03:49:36;19.53;;;8.57;;
34433;SDS011;34290;48.562;13.384;2023-02-08T03:52:08;27.33;;;9.67;;
34433;SDS011;34290;48.562;13.384;2023-02-08T03:54:37;24.77;;;9.10;;
34433;SDS011;34290;48.562;13.384;2023-02-08T03:57:09;27.10;;;9.97;;
34433;SDS011;34290;48.562;13.384;2023-02-08T03:59:40;28.70;;;9.87;;
34433;SDS011;34290;48.562;13.384;2023-02-08T04:02:11;28.10;;;11.67;;
34433;SDS011;34290;48.562;13.384;2023-02-08T04:04:42;28.90;;;10.63;;
34433;SDS011;34290;48.562;13.384;2023-02-08T04:07:13;21.07;;;8.73;;
34433;SDS011;34290;48.562;13.384;2023-02-08T04:09:42;28.40;;;10.20;;
34433;SDS011;34290;48.562;13.384;2023-02-08T04:12:10;34.53;;;10.07;;
34433;SDS011;34290;48.562;13.384;2023-02-08T04:14:37;28.60;;;10.37;;
34433;SDS011;34290;48.562;13.384;2023-02-08T04:17:07;22.73;;;9.13;;
34433;SDS011;34290;48.562;13.384;2023-02-08T04:19:34;22.43;;;8.77;;
34433;SDS011;34290;48.562;13.384;2023-02-08T04:22:01;27.27;;;10.20;;
34433;SDS011;34290;48.562;13.384;2023-02-08T04:24:30;22.73;;;9.80;;
34433;SDS011;34290;48.562;13.384;2023-02-08T04:26:56;23.97;;;10.37;;
34433;SDS011;34290;48.562;13.384;2023-02-08T04:29:23;24.33;;;10.37;;
34433;SDS011;34290;48.562;13.384;2023-02-08T04:31:50;28.20;;;9.93;;
34433;SDS011;34290;48.562;13.384;2023-02-08T04:34:18;31.87;;;10.33;;
34433;SDS011;34290;48.562;13.384;2023-02-08T04:36:45;34.10;;;10.57;;
34433;SDS011;34290;48.562;13.384;2023-02-08T04:39:12;31.33;;;10.73;;
34433;SDS011;34290;48.562;13.384;2023-02-08T04:41:40;32.83;;;11.53;;
34433;SDS011;34290;48.562;13.384;2023-02-08T04:44:07;27.77;;;11.03;;
34433;SDS011;34290;48.562;13.384;2023-02-08T04:46:34;36.63;;;11.20;;
34433;SDS011;34290;48.562;13.384;2023-02-08T04:49:01;25.93;;;10.47;;
34433;SDS011;34290;48.562;13.384;2023-02-08T04:51:28;30.33;;;11.10;;
34433;SDS011;34290;48.562;13.384;2023-02-08T04:53:55;26.17;;;10.03;;
34433;SDS011;34290;48.562;13.384;2023-02-08T04:56:22;24.13;;;10.10;;
34433;SDS011;34290;48.562;13.384;2023-02-08T04:58:51;25.33;;;10.30;;
34433;SDS011;34290;48.562;13.384;2023-02-08T05:01:18;25.03;;;9.43;;
34433;SDS011;34290;48.562;13.384;2023-02-08T05:03:45;25.20;;;9.83;;
34433;SDS011;34290;48.562;13.384;2023-02-08T05:06:12;21.40;;;8.83;;
34433;SDS011;34290;48.562;13.384;2023-02-08T05:08:39;26.07;;;9.83;;
34433;SDS011;34290;48.562;13.384;2023-02-08T05:11:06;24.20;;;8.90;;
34433;SDS011;34290;48.562;13.384;2023-02-08T05:13:33;24.20;;;8.80;;
34433;SDS011;34290;48.562;13.384;2023-02-08T05:16:01;21.73;;;9.47;;
34433;SDS011;34290;48.562;13.384;2023-02-08T05:18:28;33.50;;;11.33;;
34433;SDS011;34290;48.562;13.384;2023-02-08T05:20:56;24.87;;;10.03;;
34433;SDS011;34290;48.562;13.384;2023-02-08T05:23:24;19.67;;;8.80;;
34433;SDS011;34290;48.562;13.384;2023-02-08T05:25:51;26.23;;;10.03;;
34433;SDS011;34290;48.562;13.384;2023-02-08T05:28:18;24.00;;;10.13;;
34433;SDS011;34290;48.562;13.384;2023-02-08T05:30:45;25.07;;;8.37;;
34433;SDS011;34290;48.562;13.384;2023-02-08T05:33:14;34.10;;;12.43;;
34433;SDS011;34290;48.562;13.384;2023-02-08T05:35:42;34.37;;;10.10;;
34433;SDS011;34290;48.562;13.384;2023-02-08T05:38:09;25.33;;;10.23;;
34433;SDS011;34290;48.562;13.384;2023-02-08T05:40:36;26.57;;;10.80;;
34433;SDS011;34290;48.562;13.384;2023-02-08T05:43:07;29.33;;;10.93;;
34433;SDS011;34290;48.562;13.384;2023-02-08T05:45:34;30.03;;;9.50;;
34433;SDS011;34290;48.562;13.384;2023-02-08T05:48:01;31.43;;;12.07;;
34433;SDS011;34290;48.562;13.384;2023-02-08T05:50:30;28.70;;;12.00;;
34433;SDS011;34290;48.562;13.384;2023-02-08T05:52:57;31.07;;;12.37;;
34433;SDS011;34290;48.562;13.384;2023-02-08T05:55:25;29.50;;;11.93;;
34433;SDS011;34290;48.562;13.384;2023-02-08T05:57:52;36.60;;;11.83;;
34433;SDS011;34290;48.562;13.384;2023-02-08T06:00:19;27.73;;;11.57;;
34433;SDS011;34290;48.562;13.384;2023-02-08T06:02:46;34.67;;;11.60;;
34433;SDS011;34290;48.562;13.384;2023-02-08T06:05:14;25.27;;;9.50;;
34433;SDS011;34290;48.562;13.384;2023-02-08T06:07:42;30.67;;;10.77;;
34433;SDS011;34290;48.562;13.384;2023-02-08T06:10:09;25.10;;;10.30;;
34433;SDS011;34290;48.562;13.384;2023-02-08T06:12:36;25.00;;;10.47;;
34433;SDS011;34290;48.562;13.384;2023-02-08T06:15:06;26.37;;;10.53;;
34433;SDS011;34290;48.562;13.384;2023-02-08T06:17:34;33.50;;;11.30;;
34433;SDS011;34290;48.562;13.384;2023-02-08T06:20:01;28.63;;;10.10;;
34433;SDS011;34290;48.562;13.384;2023-02-08T06:22:28;28.90;;;10.60;;
34433;SDS011;34290;48.562;13.384;2023-02-08T06:24:56;33.57;;;11.90;;
34433;SDS011;34290;48.562;13.384;2023-02-08T06:27:23;32.13;;;12.10;;
34433;SDS011;34290;48.562;13.384;2023-02-08T06:29:52;27.90;;;11.03;;
34433;SDS011;34290;48.562;13.384;2023-02-08T06:32:19;30.17;;;11.90;;
34433;SDS011;34290;48.562;13.384;2023-02-08T06:34:46;35.87;;;13.27;;
34433;SDS011;34290;48.562;13.384;2023-02-08T06:37:15;32.97;;;11.87;;
34433;SDS011;34290;48.562;13.384;2023-02-08T06:39:42;31.53;;;12.00;;
34433;SDS011;34290;48.562;13.384;2023-02-08T06:42:10;33.30;;;11.57;;
34433;SDS011;34290;48.562;13.384;2023-02-08T06:44:37;32.60;;;12.37;;
34433;SDS011;34290;48.562;13.384;2023-02-08T06:47:06;31.77;;;11.13;;
34433;SDS011;34290;48.562;13.384;2023-02-08T06:49:33;34.70;;;12.40;;
34433;SDS011;34290;48.562;13.384;2023-02-08T06:52:00;40.30;;;12.73;;
34433;SDS011;34290;48.562;13.384;2023-02-08T06:54:27;43.10;;;12.23;;
34433;SDS011;34290;48.562;13.384;2023-02-08T06:56:54;35.27;;;12.23;;
34433;SDS011;34290;48.562;13.384;2023-02-08T06:59:23;40.27;;;13.60;;
34433;SDS011;34290;48.562;13.384;2023-02-08T07:01:49;44.50;;;13.47;;
34433;SDS011;34290;48.562;13.384;2023-02-08T07:04:19;35.03;;;12.40;;
34433;SDS011;34290;48.562;13.384;2023-02-08T07:06:46;44.80;;;13.03;;
34433;SDS011;34290;48.562;13.384;2023-02-08T07:09:14;32.47;;;11.43;;
34433;SDS011;34290;48.562;13.384;2023-02-08T07:11:41;38.43;;;13.33;;
34433;SDS011;34290;48.562;13.384;2023-02-08T07:14:10;37.57;;;14.00;;
34433;SDS011;34290;48.562;13.384;2023-02-08T07:16:39;39.03;;;12.90;;
34433;SDS011;34290;48.562;13.384;2023-02-08T07:19:06;37.07;;;14.90;;
34433;SDS011;34290;48.562;13.384;2023-02-08T07:21:33;35.27;;;12.37;;
34433;SDS011;34290;48.562;13.384;2023-02-08T07:24:00;44.93;;;15.63;;
34433;SDS011;34290;48.562;13.384;2023-02-08T07:26:27;41.33;;;15.87;;
34433;SDS011;34290;48.562;13.384;2023-02-08T07:28:54;51.43;;;16.63;;
34433;SDS011;34290;48.562;13.384;2023-02-08T07:31:21;47.73;;;17.33;;
34433;SDS011;34290;48.562;13.384;2023-02-08T07:33:49;35.07;;;13.13;;
34433;SDS011;34290;48.562;13.384;2023-02-08T07:36:16;41.83;;;15.00;;
34433;SDS011;34290;48.562;13.384;2023-02-08T07:38:43;45.20;;;16.13;;
34433;SDS011;34290;48.562;13.384;2023-02-08T07:41:10;45.23;;;16.33;;
34433;SDS011;34290;48.562;13.384;2023-02-08T07:43:38;45.23;;;16.33;;
34433;SDS011;34290;48.562;13.384;2023-02-08T07:46:07;42.60;;;15.57;;
34433;SDS011;34290;48.562;13.384;2023-02-08T07:48:35;40.80;;;14.67;;
34433;SDS011;34290;48.562;13.384;2023-02-08T07:51:04;39.93;;;14.73;;
34433;SDS011;34290;48.562;13.384;2023-02-08T07:53:31;36.47;;;14.80;;
34433;SDS011;34290;48.562;13.384;2023-02-08T07:55:59;39.77;;;14.43;;
34433;SDS011;34290;48.562;13.384;2023-02-08T07:58:26;39.13;;;14.47;;
34433;SDS011;34290;48.562;13.384;2023-02-08T08:00:53;37.37;;;14.73;;
34433;SDS011;34290;48.562;13.384;2023-02-08T08:03:20;33.83;;;14.40;;
34433;SDS011;34290;48.562;13.384;2023-02-08T08:05:48;34.87;;;12.97;;
34433;SDS011;34290;48.562;13.384;2023-02-08T08:08:17;37.07;;;12.77;;
34433;SDS011;34290;48.562;13.384;2023-02-08T08:10:44;35.10;;;13.07;;
34433;SDS011;34290;48.562;13.384;2023-02-08T08:13:13;35.57;;;13.70;;
34433;SDS011;34290;48.562;13.384;2023-02-08T08:15:43;33.60;;;12.27;;
34433;SDS011;34290;48.562;13.384;2023-02-08T08:18:10;36.73;;;13.30;;
34433;SDS011;34290;48.562;13.384;2023-02-08T08:20:37;30.63;;;12.70;;
34433;SDS011;34290;48.562;13.384;2023-02-08T08:23:04;34.83;;;13.40;;
34433;SDS011;34290;48.562;13.384;2023-02-08T08:25:32;27.67;;;12.40;;
34433;SDS011;34290;48.562;13.384;2023-02-08T08:27:59;31.27;;;11.53;;
34433;SDS011;34290;48.562;13.384;2023-02-08T08:30:27;31.13;;;12.00;;
34433;SDS011;34290;48.562;13.384;2023-02-08T08:32:54;28.17;;;11.07;;
34433;SDS011;34290;48.562;13.384;2023-02-08T08:35:21;27.03;;;10.53;;
34433;SDS011;34290;48.562;13.384;2023-02-08T08:37:48;26.33;;;10.93;;
34433;SDS011;34290;48.562;13.384;2023-02-08T08:40:15;29.13;;;11.03;;
34433;SDS011;34290;48.562;13.384;2023-02-08T08:42:43;28.60;;;10.93;;
34433;SDS011;34290;48.562;13.384;2023-02-08T08:45:10;25.23;;;10.40;;
34433;SDS011;34290;48.562;13.384;2023-02-08T08:47:37;29.30;;;11.50;;
34433;SDS011;34290;48.562;13.384;2023-02-08T08:50:04;31.57;;;11.57;;
34433;SDS011;34290;48.562;13.384;2023-02-08T08:52:31;27.87;;;11.13;;
34433;SDS011;34290;48.562;13.384;2023-02-08T08:54:58;25.10;;;7.60;;
34433;SDS011;34290;48.562;13.384;2023-02-08T08:57:25;26.90;;;8.37;;
34433;SDS011;34290;48.562;13.384;2023-02-08T08:59:54;28.90;;;10.10;;
34433;SDS011;34290;48.562;13.384;2023-02-08T09:02:21;24.73;;;10.13;;
34433;SDS011;34290;48.562;13.384;2023-02-08T09:04:48;20.73;;;8.47;;
34433;SDS011;34290;48.562;13.384;2023-02-08T09:07:15;26.33;;;10.33;;
34433;SDS011;34290;48.562;13.384;2023-02-08T09:09:42;24.33;;;8.83;;
34433;SDS011;34290;48.562;13.384;2023-02-08T09:12:12;23.07;;;9.33;;
34433;SDS011;34290;48.562;13.384;2023-02-08T09:14:39;23.90;;;8.63;;
34433;SDS011;34290;48.562;13.384;2023-02-08T09:17:07;25.00;;;10.10;;
34433;SDS011;34290;48.562;13.384;2023-02-08T09:19:34;22.47;;;8.33;;
34433;SDS011;34290;48.562;13.384;2023-02-08T09:22:01;23.73;;;9.13;;
34433;SDS011;34290;48.562;13.384;2023-02-08T09:24:28;18.70;;;7.00;;
34433;SDS011;34290;48.562;13.384;2023-02-08T09:26:54;25.77;;;10.13;;
34433;SDS011;34290;48.562;13.384;2023-02-08T09:29:21;26.27;;;8.70;;
34433;SDS011;34290;48.562;13.384;2023-02-08T09:31:49;21.70;;;7.73;;
34433;SDS011;34290;48.562;13.384;2023-02-08T09:34:17;20.83;;;8.43;;
34433;SDS011;34290;48.562;13.384;2023-02-08T09:36:44;25.20;;;8.17;;
34433;SDS011;34290;48.562;13.384;2023-02-08T09:39:13;24.27;;;8.60;;
34433;SDS011;34290;48.562;13.384;2023-02-08T09:41:46;20.87;;;8.47;;
34433;SDS011;34290;48.562;13.384;2023-02-08T09:44:27;26.87;;;7.57;;
34433;SDS011;34290;48.562;13.384;2023-02-08T09:47:01;28.37;;;9.27;;
34433;SDS011;34290;48.562;13.384;2023-02-08T09:49:33;19.93;;;8.00;;
34433;SDS011;34290;48.562;13.384;2023-02-08T09:52:07;18.40;;;7.90;;
34433;SDS011;34290;48.562;13.384;2023-02-08T09:54:39;21.83;;;8.03;;
34433;SDS011;34290;48.562;13.384;2023-02-08T09:57:10;16.43;;;6.93;;
34433;SDS011;34290;48.562;13.384;2023-02-08T09:59:45;21.83;;;8.97;;
34433;SDS011;34290;48.562;13.384;2023-02-08T10:02:18;22.43;;;8.50;;
34433;SDS011;34290;48.562;13.384;2023-02-08T10:04:53;21.87;;;8.57;;
34433;SDS011;34290;48.562;13.384;2023-02-08T10:07:23;20.97;;;8.20;;
34433;SDS011;34290;48.562;13.384;2023-02-08T10:09:50;22.60;;;8.80;;
34433;SDS011;34290;48.562;13.384;2023-02-08T10:12:20;17.03;;;6.67;;
34433;SDS011;34290;48.562;13.384;2023-02-08T10:14:56;22.77;;;8.77;;
34433;SDS011;34290;48.562;13.384;2023-02-08T10:17:48;26.10;;;9.77;;
34433;SDS011;34290;48.562;13.384;2023-02-08T10:20:30;24.97;;;9.20;;
34433;SDS011;34290;48.562;13.384;2023-02-08T10:23:07;23.90;;;9.80;;
34433;SDS011;34290;48.562;13.384;2023-02-08T10:28:43;20.93;;;8.73;;
34433;SDS011;34290;48.562;13.384;2023-02-08T10:31:25;24.73;;;8.43;;
34433;SDS011;34290;48.562;13.384;2023-02-08T10:34:01;22.23;;;9.63;;
34433;SDS011;34290;48.562;13.384;2023-02-08T10:36:34;22.40;;;8.73;;
34433;SDS011;34290;48.562;13.384;2023-02-08T10:39:08;10.93;;;5.40;;
34433;SDS011;34290;48.562;13.384;2023-02-08T10:41:41;18.57;;;6.90;;
34433;SDS011;34290;48.562;13.384;2023-02-08T10:44:12;17.73;;;6.83;;
34433;SDS011;34290;48.562;13.384;2023-02-08T10:46:49;21.27;;;9.43;;
34433;SDS011;34290;48.562;13.384;2023-02-08T10:49:20;23.70;;;9.57;;
34433;SDS011;34290;48.562;13.384;2023-02-08T10:51:56;26.00;;;10.10;;
34433;SDS011;34290;48.562;13.384;2023-02-08T10:54:23;22.97;;;9.13;;
34433;SDS011;34290;48.562;13.384;2023-02-08T10:56:51;18.10;;;7.80;;
34433;SDS011;34290;48.562;13.384;2023-02-08T10:59:23;23.57;;;8.73;;
34433;SDS011;34290;48.562;13.384;2023-02-08T11:01:54;19.03;;;7.83;;
34433;SDS011;34290;48.562;13.384;2023-02-08T11:04:23;21.17;;;8.43;;
34433;SDS011;34290;48.562;13.384;2023-02-08T11:06:50;21.90;;;8.70;;
34433;SDS011;34290;48.562;13.384;2023-02-08T11:09:21;26.53;;;9.63;;
34433;SDS011;34290;48.562;13.384;2023-02-08T11:11:51;17.83;;;7.03;;
34433;SDS011;34290;48.562;13.384;2023-02-08T11:14:22;15.93;;;6.63;;
34433;SDS011;34290;48.562;13.384;2023-02-08T11:16:51;19.87;;;8.40;;
34433;SDS011;34290;48.562;13.384;2023-02-08T11:19:22;22.57;;;9.37;;
34433;SDS011;34290;48.562;13.384;2023-02-08T11:21:58;20.47;;;7.30;;
34433;SDS011;34290;48.562;13.384;2023-02-08T11:24:29;23.70;;;6.47;;
34433;SDS011;34290;48.562;13.384;2023-02-08T11:27:00;12.47;;;5.80;;
34433;SDS011;34290;48.562;13.384;2023-02-08T11:29:27;20.10;;;8.23;;
34433;SDS011;34290;48.562;13.384;2023-02-08T11:31:57;16.83;;;7.40;;
34433;SDS011;34290;48.562;13.384;2023-02-08T11:34:26;24.13;;;8.13;;
34433;SDS011;34290;48.562;13.384;2023-02-08T11:36:54;20.63;;;7.90;;
34433;SDS011;34290;48.562;13.384;2023-02-08T11:39:24;16.80;;;6.87;;
34433;SDS011;34290;48.562;13.384;2023-02-08T11:41:56;19.37;;;8.10;;
34433;SDS011;34290;48.562;13.384;2023-02-08T11:44:26;21.50;;;8.17;;
34433;SDS011;34290;48.562;13.384;2023-02-08T11:46:55;19.73;;;7.37;;
34433;SDS011;34290;48.562;13.384;2023-02-08T11:49:26;19.73;;;8.10;;
34433;SDS011;34290;48.562;13.384;2023-02-08T11:51:57;16.47;;;6.27;;
34433;SDS011;34290;48.562;13.384;2023-02-08T11:54:37;21.27;;;9.03;;
34433;SDS011;34290;48.562;13.384;2023-02-08T11:57:14;20.57;;;7.27;;
34433;SDS011;34290;48.562;13.384;2023-02-08T11:59:43;13.10;;;6.23;;
34433;SDS011;34290;48.562;13.384;2023-02-08T12:02:24;19.33;;;7.47;;
34433;SDS011;34290;48.562;13.384;2023-02-08T12:05:00;17.33;;;7.47;;
34433;SDS011;34290;48.562;13.384;2023-02-08T12:07:33;12.97;;;5.57;;
34433;SDS011;34290;48.562;13.384;2023-02-08T12:10:17;19.13;;;6.90;;
34433;SDS011;34290;48.562;13.384;2023-02-08T12:13:09;17.50;;;6.90;;
34433;SDS011;34290;48.562;13.384;2023-02-08T12:15:53;13.97;;;6.37;;
34433;SDS011;34290;48.562;13.384;2023-02-08T12:18:36;19.30;;;6.50;;
34433;SDS011;34290;48.562;13.384;2023-02-08T12:21:18;18.77;;;7.43;;
34433;SDS011;34290;48.562;13.384;2023-02-08T12:23:50;14.30;;;6.47;;
34433;SDS011;34290;48.562;13.384;2023-02-08T12:26:21;15.83;;;7.43;;
34433;SDS011;34290;48.562;13.384;2023-02-08T12:29:05;13.50;;;6.17;;
34433;SDS011;34290;48.562;13.384;2023-02-08T12:31:48;15.53;;;6.07;;
34433;SDS011;34290;48.562;13.384;2023-02-08T12:34:31;20.67;;;4.97;;
34433;SDS011;34290;48.562;13.384;2023-02-08T12:37:18;17.43;;;7.30;;
34433;SDS011;34290;48.562;13.384;2023-02-08T12:40:17;15.90;;;6.40;;
34433;SDS011;34290;48.562;13.384;2023-02-08T12:43:12;12.53;;;5.40;;
34433;SDS011;34290;48.562;13.384;2023-02-08T12:45:56;16.93;;;6.67;;
34433;SDS011;34290;48.562;13.384;2023-02-08T12:48:39;11.87;;;4.87;;
34433;SDS011;34290;48.562;13.384;2023-02-08T12:51:10;12.57;;;5.27;;
34433;SDS011;34290;48.562;13.384;2023-02-08T12:53:48;18.43;;;6.87;;
34433;SDS011;34290;48.562;13.384;2023-02-08T12:56:17;14.10;;;5.93;;
34433;SDS011;34290;48.562;13.384;2023-02-08T12:58:49;12.93;;;5.57;;
34433;SDS011;34290;48.562;13.384;2023-02-08T13:01:19;13.83;;;5.37;;
34433;SDS011;34290;48.562;13.384;2023-02-08T13:03:50;18.33;;;6.27;;
34433;SDS011;34290;48.562;13.384;2023-02-08T13:06:22;19.23;;;5.93;;
34433;SDS011;34290;48.562;13.384;2023-02-08T13:08:51;18.10;;;6.57;;
34433;SDS011;34290;48.562;13.384;2023-02-08T13:11:23;18.27;;;6.53;;
34433;SDS011;34290;48.562;13.384;2023-02-08T13:13:55;14.93;;;5.70;;
34433;SDS011;34290;48.562;13.384;2023-02-08T13:16:25;15.57;;;5.93;;
34433;SDS011;34290;48.562;13.384;2023-02-08T13:19:01;16.97;;;5.63;;
34433;SDS011;34290;48.562;13.384;2023-02-08T13:21:43;17.90;;;5.57;;
34433;SDS011;34290;48.562;13.384;2023-02-08T13:24:14;11.33;;;4.30;;
34433;SDS011;34290;48.562;13.384;2023-02-08T13:26:44;13.80;;;5.73;;
34433;SDS011;34290;48.562;13.384;2023-02-08T13:29:14;14.17;;;5.20;;
34433;SDS011;34290;48.562;13.384;2023-02-08T13:31:45;13.50;;;5.40;;
34433;SDS011;34290;48.562;13.384;2023-02-08T13:34:16;9.30;;;4.10;;
34433;SDS011;34290;48.562;13.384;2023-02-08T13:36:48;10.20;;;4.23;;
34433;SDS011;34290;48.562;13.384;2023-02-08T13:39:27;12.57;;;5.53;;
34433;SDS011;34290;48.562;13.384;2023-02-08T13:41:56;10.47;;;4.47;;
34433;SDS011;34290;48.562;13.384;2023-02-08T13:44:25;12.07;;;5.07;;
34433;SDS011;34290;48.562;13.384;2023-02-08T13:46:55;9.33;;;4.33;;
34433;SDS011;34290;48.562;13.384;2023-02-08T13:49:43;10.40;;;4.03;;
34433;SDS011;34290;48.562;13.384;2023-02-08T14:01:01;6.70;;;3.60;;
34433;SDS011;34290;48.562;13.384;2023-02-08T14:03:42;5.80;;;2.93;;
34433;SDS011;34290;48.562;13.384;2023-02-08T14:06:15;6.57;;;3.27;;
34433;SDS011;34290;48.562;13.384;2023-02-08T14:08:47;7.20;;;3.57;;
34433;SDS011;34290;48.562;13.384;2023-02-08T14:11:23;9.70;;;3.97;;
34433;SDS011;34290;48.562;13.384;2023-02-08T14:14:01;9.07;;;4.47;;
34433;SDS011;34290;48.562;13.384;2023-02-08T14:16:30;11.43;;;3.60;;
34433;SDS011;34290;48.562;13.384;2023-02-08T14:19:04;6.60;;;3.60;;
34433;SDS011;34290;48.562;13.384;2023-02-08T14:21:52;9.47;;;3.67;;
34433;SDS011;34290;48.562;13.384;2023-02-08T14:24:28;10.37;;;4.03;;
34433;SDS011;34290;48.562;13.384;2023-02-08T14:27:04;9.43;;;3.67;;
34433;SDS011;34290;48.562;13.384;2023-02-08T14:29:33;9.40;;;4.10;;
34433;SDS011;34290;48.562;13.384;2023-02-08T14:32:00;11.60;;;4.40;;
34433;SDS011;34290;48.562;13.384;2023-02-08T14:34:30;6.00;;;3.30;;
34433;SDS011;34290;48.562;13.384;2023-02-08T14:37:01;6.90;;;3.53;;
34433;SDS011;34290;48.562;13.384;2023-02-08T14:39:32;8.30;;;3.73;;
34433;SDS011;34290;48.562;13.384;2023-02-08T14:42:01;8.77;;;3.63;;
34433;SDS011;34290;48.562;13.384;2023-02-08T14:50:24;5.67;;;2.97;;
34433;SDS011;34290;48.562;13.384;2023-02-08T14:52:55;6.77;;;3.30;;
34433;SDS011;34290;48.562;13.384;2023-02-08T14:55:25;6.33;;;3.50;;
34433;SDS011;34290;48.562;13.384;2023-02-08T14:57:56;7.93;;;3.80;;
34433;SDS011;34290;48.562;13.384;2023-02-08T15:00:25;7.77;;;3.50;;
34433;SDS011;34290;48.562;13.384;2023-02-08T15:02:57;7.50;;;3.37;;
34433;SDS011;34290;48.562;13.384;2023-02-08T15:05:27;7.00;;;2.90;;